Terminal Aerodrome Forecast
Issued by NWS Fort Wayne, IN

Home | Current Version | Previous Version | Graphics & Text | Print | Product List | Glossary On
Versions: 1 2 3 4 5 6 7 8 9 10 11 12
000
FTUS43 KIWX 010500
TAFFWA
TAF
KFWA 010538Z 0106/0206 33006KT P6SM SCT080
     FM011500 35008KT P6SM SCT050
     FM020100 29003KT P6SM SCT250=

USA.gov is the U.S. government's official web portal to all federal, state and local government web resources and services.